sensor_id;sensor_type;location;lat;lon;timestamp;temperature;humidity
21001;DHT22;10658;50.920;12.238;2023-04-03T00:03:25;2.50;99.90
21001;DHT22;10658;50.920;12.238;2023-04-03T00:07:29;2.50;99.90
21001;DHT22;10658;50.920;12.238;2023-04-03T00:11:29;2.40;99.90
21001;DHT22;10658;50.920;12.238;2023-04-03T00:15:31;2.40;99.90
21001;DHT22;10658;50.920;12.238;2023-04-03T00:19:32;2.30;99.90
21001;DHT22;10658;50.920;12.238;2023-04-03T00:23:36;2.30;99.90
21001;DHT22;10658;50.920;12.238;2023-04-03T00:27:38;2.10;99.90
21001;DHT22;10658;50.920;12.238;2023-04-03T00:31:40;2.00;99.90
21001;DHT22;10658;50.920;12.238;2023-04-03T00:35:41;2.00;99.90
21001;DHT22;10658;50.920;12.238;2023-04-03T00:39:42;2.00;99.90
21001;DHT22;10658;50.920;12.238;2023-04-03T00:43:43;1.90;99.90
21001;DHT22;10658;50.920;12.238;2023-04-03T00:47:45;1.80;99.90
21001;DHT22;10658;50.920;12.238;2023-04-03T00:51:46;1.80;99.90
21001;DHT22;10658;50.920;12.238;2023-04-03T00:55:48;1.70;99.90
21001;DHT22;10658;50.920;12.238;2023-04-03T00:59:54;1.70;99.90
21001;DHT22;10658;50.920;12.238;2023-04-03T01:03:57;1.60;99.90
21001;DHT22;10658;50.920;12.238;2023-04-03T01:07:59;1.60;99.90
21001;DHT22;10658;50.920;12.238;2023-04-03T01:16:27;1.50;99.90
21001;DHT22;10658;50.920;12.238;2023-04-03T01:24:38;1.50;99.90
21001;DHT22;10658;50.920;12.238;2023-04-03T01:28:42;1.50;99.90
21001;DHT22;10658;50.920;12.238;2023-04-03T01:32:43;1.50;99.90
21001;DHT22;10658;50.920;12.238;2023-04-03T01:36:44;1.40;99.90
21001;DHT22;10658;50.920;12.238;2023-04-03T01:40:45;1.40;99.90
21001;DHT22;10658;50.920;12.238;2023-04-03T01:44:46;1.40;99.90
21001;DHT22;10658;50.920;12.238;2023-04-03T01:48:48;1.40;99.90
21001;DHT22;10658;50.920;12.238;2023-04-03T01:52:49;1.30;99.90
21001;DHT22;10658;50.920;12.238;2023-04-03T01:56:50;1.30;99.90
21001;DHT22;10658;50.920;12.238;2023-04-03T02:00:52;1.30;99.90
21001;DHT22;10658;50.920;12.238;2023-04-03T02:04:53;1.20;99.90
21001;DHT22;10658;50.920;12.238;2023-04-03T02:08:56;1.20;99.90
21001;DHT22;10658;50.920;12.238;2023-04-03T02:12:56;1.10;99.90
21001;DHT22;10658;50.920;12.238;2023-04-03T02:16:57;1.10;99.90
21001;DHT22;10658;50.920;12.238;2023-04-03T02:20:58;1.10;99.90
21001;DHT22;10658;50.920;12.238;2023-04-03T02:25:00;1.10;99.90
21001;DHT22;10658;50.920;12.238;2023-04-03T02:29:01;1.00;99.90
21001;DHT22;10658;50.920;12.238;2023-04-03T02:33:03;1.00;99.90
21001;DHT22;10658;50.920;12.238;2023-04-03T02:37:04;0.90;99.90
21001;DHT22;10658;50.920;12.238;2023-04-03T02:41:08;0.90;99.90
21001;DHT22;10658;50.920;12.238;2023-04-03T02:45:10;0.80;99.90
21001;DHT22;10658;50.920;12.238;2023-04-03T02:49:14;0.80;99.90
21001;DHT22;10658;50.920;12.238;2023-04-03T02:53:16;0.70;99.90
21001;DHT22;10658;50.920;12.238;2023-04-03T02:57:17;0.70;99.90
21001;DHT22;10658;50.920;12.238;2023-04-03T03:01:18;0.60;99.90
21001;DHT22;10658;50.920;12.238;2023-04-03T03:05:19;0.50;99.90
21001;DHT22;10658;50.920;12.238;2023-04-03T03:09:20;0.50;99.90
21001;DHT22;10658;50.920;12.238;2023-04-03T03:13:21;0.50;99.90
21001;DHT22;10658;50.920;12.238;2023-04-03T03:17:21;0.40;99.90
21001;DHT22;10658;50.920;12.238;2023-04-03T03:21:22;0.50;99.90
21001;DHT22;10658;50.920;12.238;2023-04-03T03:25:23;0.40;99.90
21001;DHT22;10658;50.920;12.238;2023-04-03T03:29:24;0.40;99.90
21001;DHT22;10658;50.920;12.238;2023-04-03T03:33:26;0.30;99.90
21001;DHT22;10658;50.920;12.238;2023-04-03T03:37:27;0.30;99.90
21001;DHT22;10658;50.920;12.238;2023-04-03T03:41:28;0.30;99.90
21001;DHT22;10658;50.920;12.238;2023-04-03T03:45:30;0.30;99.90
21001;DHT22;10658;50.920;12.238;2023-04-03T03:49:31;0.20;99.90
21001;DHT22;10658;50.920;12.238;2023-04-03T03:53:33;0.20;99.90
21001;DHT22;10658;50.920;12.238;2023-04-03T03:57:39;0.20;99.90
21001;DHT22;10658;50.920;12.238;2023-04-03T04:01:40;0.20;99.90
21001;DHT22;10658;50.920;12.238;2023-04-03T04:05:41;0.10;99.90
21001;DHT22;10658;50.920;12.238;2023-04-03T04:09:42;0.10;99.90
21001;DHT22;10658;50.920;12.238;2023-04-03T04:13:44;0.00;99.90
21001;DHT22;10658;50.920;12.238;2023-04-03T04:17:47;-0.10;99.90
21001;DHT22;10658;50.920;12.238;2023-04-03T04:21:48;-0.10;99.90
21001;DHT22;10658;50.920;12.238;2023-04-03T04:25:49;0.00;99.90
21001;DHT22;10658;50.920;12.238;2023-04-03T04:29:51;-0.10;99.90
21001;DHT22;10658;50.920;12.238;2023-04-03T04:33:53;-0.20;99.90
21001;DHT22;10658;50.920;12.238;2023-04-03T04:37:54;-0.20;99.90
21001;DHT22;10658;50.920;12.238;2023-04-03T04:41:56;-0.20;99.90
21001;DHT22;10658;50.920;12.238;2023-04-03T04:46:07;-0.30;99.90
21001;DHT22;10658;50.920;12.238;2023-04-03T04:50:12;-0.30;99.90
21001;DHT22;10658;50.920;12.238;2023-04-03T04:54:14;-0.30;99.90
21001;DHT22;10658;50.920;12.238;2023-04-03T04:58:16;-0.30;99.90
21001;DHT22;10658;50.920;12.238;2023-04-03T05:02:17;-0.30;99.90
21001;DHT22;10658;50.920;12.238;2023-04-03T05:06:22;-0.40;99.90
21001;DHT22;10658;50.920;12.238;2023-04-03T05:10:24;-0.40;99.90
21001;DHT22;10658;50.920;12.238;2023-04-03T05:14:26;-0.40;99.90
21001;DHT22;10658;50.920;12.238;2023-04-03T05:18:29;-0.40;99.90
21001;DHT22;10658;50.920;12.238;2023-04-03T05:22:33;-0.30;99.90
21001;DHT22;10658;50.920;12.238;2023-04-03T05:26:39;-0.30;99.90
21001;DHT22;10658;50.920;12.238;2023-04-03T05:30:42;-0.20;99.90
21001;DHT22;10658;50.920;12.238;2023-04-03T05:34:43;-0.20;99.90
21001;DHT22;10658;50.920;12.238;2023-04-03T05:38:44;-0.10;99.90
21001;DHT22;10658;50.920;12.238;2023-04-03T05:42:46;0.00;99.90
21001;DHT22;10658;50.920;12.238;2023-04-03T05:46:49;0.00;99.90
21001;DHT22;10658;50.920;12.238;2023-04-03T05:50:51;0.20;99.90
21001;DHT22;10658;50.920;12.238;2023-04-03T05:54:57;0.30;99.90
21001;DHT22;10658;50.920;12.238;2023-04-03T05:59:01;0.50;99.90
21001;DHT22;10658;50.920;12.238;2023-04-03T06:03:02;0.50;99.90
21001;DHT22;10658;50.920;12.238;2023-04-03T06:07:03;0.60;99.90
21001;DHT22;10658;50.920;12.238;2023-04-03T06:11:04;0.60;99.90
21001;DHT22;10658;50.920;12.238;2023-04-03T06:15:06;0.80;99.90
21001;DHT22;10658;50.920;12.238;2023-04-03T06:19:09;0.90;99.90
21001;DHT22;10658;50.920;12.238;2023-04-03T06:23:13;0.90;99.90
21001;DHT22;10658;50.920;12.238;2023-04-03T06:27:14;0.80;99.90
21001;DHT22;10658;50.920;12.238;2023-04-03T06:31:16;0.80;99.90
21001;DHT22;10658;50.920;12.238;2023-04-03T06:35:17;0.90;99.90
21001;DHT22;10658;50.920;12.238;2023-04-03T06:39:20;1.10;99.90
21001;DHT22;10658;50.920;12.238;2023-04-03T06:43:22;1.00;99.90
21001;DHT22;10658;50.920;12.238;2023-04-03T06:47:23;1.10;99.90
21001;DHT22;10658;50.920;12.238;2023-04-03T06:51:26;1.00;99.90
21001;DHT22;10658;50.920;12.238;2023-04-03T06:55:28;0.90;99.90
21001;DHT22;10658;50.920;12.238;2023-04-03T06:59:28;0.80;99.90
21001;DHT22;10658;50.920;12.238;2023-04-03T07:03:29;0.70;99.90
21001;DHT22;10658;50.920;12.238;2023-04-03T07:07:30;0.80;99.90
21001;DHT22;10658;50.920;12.238;2023-04-03T07:11:31;0.70;99.90
21001;DHT22;10658;50.920;12.238;2023-04-03T07:15:32;0.90;99.90
21001;DHT22;10658;50.920;12.238;2023-04-03T07:19:33;1.30;99.90
21001;DHT22;10658;50.920;12.238;2023-04-03T07:23:35;1.30;99.90
21001;DHT22;10658;50.920;12.238;2023-04-03T07:27:35;1.20;99.90
21001;DHT22;10658;50.920;12.238;2023-04-03T07:31:39;1.20;99.90
21001;DHT22;10658;50.920;12.238;2023-04-03T07:35:41;1.30;99.90
21001;DHT22;10658;50.920;12.238;2023-04-03T07:39:45;1.20;99.90
21001;DHT22;10658;50.920;12.238;2023-04-03T07:43:47;1.20;99.90
21001;DHT22;10658;50.920;12.238;2023-04-03T07:47:50;1.50;99.90
21001;DHT22;10658;50.920;12.238;2023-04-03T07:51:51;1.80;99.90
21001;DHT22;10658;50.920;12.238;2023-04-03T07:55:52;2.00;99.90
21001;DHT22;10658;50.920;12.238;2023-04-03T07:59:56;2.40;99.90
21001;DHT22;10658;50.920;12.238;2023-04-03T08:03:57;2.50;99.90
21001;DHT22;10658;50.920;12.238;2023-04-03T08:07:58;2.50;99.90
21001;DHT22;10658;50.920;12.238;2023-04-03T08:11:59;2.60;99.90
21001;DHT22;10658;50.920;12.238;2023-04-03T08:16:07;2.90;99.90
21001;DHT22;10658;50.920;12.238;2023-04-03T08:20:10;3.10;99.90
21001;DHT22;10658;50.920;12.238;2023-04-03T08:24:11;2.50;99.90
21001;DHT22;10658;50.920;12.238;2023-04-03T08:28:12;2.60;99.90
21001;DHT22;10658;50.920;12.238;2023-04-03T08:32:13;2.70;99.90
21001;DHT22;10658;50.920;12.238;2023-04-03T08:36:23;2.90;99.90
21001;DHT22;10658;50.920;12.238;2023-04-03T08:40:24;3.40;99.90
21001;DHT22;10658;50.920;12.238;2023-04-03T08:48:45;3.80;99.90
21001;DHT22;10658;50.920;12.238;2023-04-03T08:52:55;4.30;99.90
21001;DHT22;10658;50.920;12.238;2023-04-03T08:56:58;4.80;99.90
21001;DHT22;10658;50.920;12.238;2023-04-03T09:01:05;5.10;99.90
21001;DHT22;10658;50.920;12.238;2023-04-03T09:05:19;5.00;99.90
21001;DHT22;10658;50.920;12.238;2023-04-03T09:09:36;4.70;99.90
21001;DHT22;10658;50.920;12.238;2023-04-03T09:18:21;3.70;99.90
21001;DHT22;10658;50.920;12.238;2023-04-03T09:22:25;3.20;99.90
21001;DHT22;10658;50.920;12.238;2023-04-03T09:26:34;3.20;99.90
21001;DHT22;10658;50.920;12.238;2023-04-03T09:30:37;3.80;99.90
21001;DHT22;10658;50.920;12.238;2023-04-03T09:34:41;4.70;99.90
21001;DHT22;10658;50.920;12.238;2023-04-03T09:38:42;5.40;99.90
21001;DHT22;10658;50.920;12.238;2023-04-03T09:42:43;5.80;99.90
21001;DHT22;10658;50.920;12.238;2023-04-03T09:46:44;5.90;99.90
21001;DHT22;10658;50.920;12.238;2023-04-03T09:55:19;6.70;99.90
21001;DHT22;10658;50.920;12.238;2023-04-03T09:59:22;6.80;99.90
21001;DHT22;10658;50.920;12.238;2023-04-03T10:03:32;6.70;99.90
21001;DHT22;10658;50.920;12.238;2023-04-03T10:07:36;6.40;99.90
21001;DHT22;10658;50.920;12.238;2023-04-03T10:11:38;6.00;99.90
21001;DHT22;10658;50.920;12.238;2023-04-03T10:15:45;6.20;99.90
21001;DHT22;10658;50.920;12.238;2023-04-03T10:20:02;6.50;99.90
21001;DHT22;10658;50.920;12.238;2023-04-03T10:41:46;6.30;99.90
21001;DHT22;10658;50.920;12.238;2023-04-03T10:46:09;6.10;99.90
21001;DHT22;10658;50.920;12.238;2023-04-03T10:59:02;5.40;99.90
21001;DHT22;10658;50.920;12.238;2023-04-03T11:03:16;5.60;99.90
21001;DHT22;10658;50.920;12.238;2023-04-03T11:07:26;5.70;99.90
21001;DHT22;10658;50.920;12.238;2023-04-03T11:11:31;6.50;99.90
21001;DHT22;10658;50.920;12.238;2023-04-03T11:15:33;7.50;99.90
21001;DHT22;10658;50.920;12.238;2023-04-03T11:24:25;6.50;99.90
21001;DHT22;10658;50.920;12.238;2023-04-03T11:28:27;5.80;99.90
21001;DHT22;10658;50.920;12.238;2023-04-03T11:41:29;5.80;99.90
21001;DHT22;10658;50.920;12.238;2023-04-03T11:46:04;6.40;99.90
21001;DHT22;10658;50.920;12.238;2023-04-03T11:50:05;7.30;99.90
21001;DHT22;10658;50.920;12.238;2023-04-03T11:54:43;7.60;99.90
21001;DHT22;10658;50.920;12.238;2023-04-03T12:07:27;6.10;99.90
21001;DHT22;10658;50.920;12.238;2023-04-03T12:11:33;5.40;99.90
21001;DHT22;10658;50.920;12.238;2023-04-03T12:19:40;5.50;99.90
21001;DHT22;10658;50.920;12.238;2023-04-03T12:28:06;6.40;99.90
21001;DHT22;10658;50.920;12.238;2023-04-03T12:32:22;7.00;99.90
21001;DHT22;10658;50.920;12.238;2023-04-03T12:37:02;6.40;99.90
21001;DHT22;10658;50.920;12.238;2023-04-03T12:45:20;5.50;99.90
21001;DHT22;10658;50.920;12.238;2023-04-03T12:53:36;6.90;99.90
21001;DHT22;10658;50.920;12.238;2023-04-03T12:57:39;7.00;99.90
21001;DHT22;10658;50.920;12.238;2023-04-03T13:01:40;6.30;99.90
21001;DHT22;10658;50.920;12.238;2023-04-03T13:05:44;5.70;99.90
21001;DHT22;10658;50.920;12.238;2023-04-03T13:09:55;5.50;99.90
21001;DHT22;10658;50.920;12.238;2023-04-03T13:13:57;5.50;99.90
21001;DHT22;10658;50.920;12.238;2023-04-03T13:17:58;6.10;99.90
21001;DHT22;10658;50.920;12.238;2023-04-03T13:22:06;6.70;99.90
21001;DHT22;10658;50.920;12.238;2023-04-03T13:26:09;6.60;99.90
21001;DHT22;10658;50.920;12.238;2023-04-03T13:34:56;5.30;99.90
21001;DHT22;10658;50.920;12.238;2023-04-03T13:43:25;5.10;99.90
21001;DHT22;10658;50.920;12.238;2023-04-03T13:47:39;5.20;99.90
21001;DHT22;10658;50.920;12.238;2023-04-03T13:51:40;5.50;99.90
21001;DHT22;10658;50.920;12.238;2023-04-03T14:00:33;5.30;99.90
21001;DHT22;10658;50.920;12.238;2023-04-03T14:08:45;5.10;99.90
21001;DHT22;10658;50.920;12.238;2023-04-03T14:12:47;4.90;99.90
21001;DHT22;10658;50.920;12.238;2023-04-03T14:16:53;4.90;99.90
21001;DHT22;10658;50.920;12.238;2023-04-03T14:20:54;4.90;99.90
21001;DHT22;10658;50.920;12.238;2023-04-03T14:24:55;4.80;99.90
21001;DHT22;10658;50.920;12.238;2023-04-03T14:28:56;4.80;99.90
21001;DHT22;10658;50.920;12.238;2023-04-03T14:32:59;4.80;99.90
21001;DHT22;10658;50.920;12.238;2023-04-03T14:37:00;4.70;99.90
21001;DHT22;10658;50.920;12.238;2023-04-03T14:41:01;4.70;99.90
21001;DHT22;10658;50.920;12.238;2023-04-03T14:45:05;4.40;99.90
21001;DHT22;10658;50.920;12.238;2023-04-03T14:49:34;4.30;99.90
21001;DHT22;10658;50.920;12.238;2023-04-03T14:53:35;4.20;99.90
21001;DHT22;10658;50.920;12.238;2023-04-03T14:57:38;4.30;99.90
21001;DHT22;10658;50.920;12.238;2023-04-03T15:01:40;4.40;99.90
21001;DHT22;10658;50.920;12.238;2023-04-03T15:05:41;4.30;99.90
21001;DHT22;10658;50.920;12.238;2023-04-03T15:09:42;4.30;99.90
21001;DHT22;10658;50.920;12.238;2023-04-03T15:13:43;4.20;99.90
21001;DHT22;10658;50.920;12.238;2023-04-03T15:17:45;4.10;99.90
21001;DHT22;10658;50.920;12.238;2023-04-03T15:21:48;4.00;99.90
21001;DHT22;10658;50.920;12.238;2023-04-03T15:25:49;3.90;99.90
21001;DHT22;10658;50.920;12.238;2023-04-03T15:29:50;3.80;99.90
21001;DHT22;10658;50.920;12.238;2023-04-03T15:33:51;3.80;99.90
21001;DHT22;10658;50.920;12.238;2023-04-03T15:37:52;3.70;99.90
21001;DHT22;10658;50.920;12.238;2023-04-03T15:41:53;3.70;99.90
21001;DHT22;10658;50.920;12.238;2023-04-03T15:45:58;3.70;99.90
21001;DHT22;10658;50.920;12.238;2023-04-03T15:50:00;3.70;99.90
21001;DHT22;10658;50.920;12.238;2023-04-03T15:54:01;3.70;99.90
21001;DHT22;10658;50.920;12.238;2023-04-03T15:58:02;3.60;99.90
21001;DHT22;10658;50.920;12.238;2023-04-03T16:02:05;3.60;99.90
21001;DHT22;10658;50.920;12.238;2023-04-03T16:06:07;3.50;99.90
21001;DHT22;10658;50.920;12.238;2023-04-03T16:10:09;3.50;99.90
21001;DHT22;10658;50.920;12.238;2023-04-03T16:14:10;3.50;99.90
21001;DHT22;10658;50.920;12.238;2023-04-03T16:18:11;3.50;99.90
21001;DHT22;10658;50.920;12.238;2023-04-03T16:22:13;3.40;99.90
21001;DHT22;10658;50.920;12.238;2023-04-03T16:26:14;3.40;99.90
21001;DHT22;10658;50.920;12.238;2023-04-03T16:30:15;3.50;99.90
21001;DHT22;10658;50.920;12.238;2023-04-03T16:34:16;3.50;99.90
21001;DHT22;10658;50.920;12.238;2023-04-03T16:38:18;3.40;99.90
21001;DHT22;10658;50.920;12.238;2023-04-03T16:42:22;3.30;99.90
21001;DHT22;10658;50.920;12.238;2023-04-03T16:46:23;3.20;99.90
21001;DHT22;10658;50.920;12.238;2023-04-03T16:50:24;3.20;99.90
21001;DHT22;10658;50.920;12.238;2023-04-03T16:54:25;3.00;99.90
21001;DHT22;10658;50.920;12.238;2023-04-03T16:58:26;2.90;99.90
21001;DHT22;10658;50.920;12.238;2023-04-03T17:02:26;2.80;99.90
21001;DHT22;10658;50.920;12.238;2023-04-03T17:06:28;2.80;99.90
21001;DHT22;10658;50.920;12.238;2023-04-03T17:10:29;2.70;99.90
21001;DHT22;10658;50.920;12.238;2023-04-03T17:14:30;2.70;99.90
21001;DHT22;10658;50.920;12.238;2023-04-03T17:18:32;2.70;99.90
21001;DHT22;10658;50.920;12.238;2023-04-03T17:22:33;2.60;99.90
21001;DHT22;10658;50.920;12.238;2023-04-03T17:26:34;2.60;99.90
21001;DHT22;10658;50.920;12.238;2023-04-03T17:30:36;2.50;99.90
21001;DHT22;10658;50.920;12.238;2023-04-03T17:34:37;2.40;99.90
21001;DHT22;10658;50.920;12.238;2023-04-03T17:38:39;2.50;99.90
21001;DHT22;10658;50.920;12.238;2023-04-03T17:42:40;2.50;99.90
21001;DHT22;10658;50.920;12.238;2023-04-03T17:46:41;2.30;99.90
21001;DHT22;10658;50.920;12.238;2023-04-03T17:50:42;2.30;99.90
21001;DHT22;10658;50.920;12.238;2023-04-03T17:54:43;2.30;99.90
21001;DHT22;10658;50.920;12.238;2023-04-03T17:58:44;2.30;99.90
21001;DHT22;10658;50.920;12.238;2023-04-03T18:02:45;2.30;99.90
21001;DHT22;10658;50.920;12.238;2023-04-03T18:06:48;2.30;99.90
21001;DHT22;10658;50.920;12.238;2023-04-03T18:10:50;2.30;99.90
21001;DHT22;10658;50.920;12.238;2023-04-03T18:14:51;2.30;99.90
21001;DHT22;10658;50.920;12.238;2023-04-03T18:18:52;2.20;99.90
21001;DHT22;10658;50.920;12.238;2023-04-03T18:22:53;2.20;99.90
21001;DHT22;10658;50.920;12.238;2023-04-03T18:27:04;2.10;99.90
21001;DHT22;10658;50.920;12.238;2023-04-03T18:31:07;2.10;99.90
21001;DHT22;10658;50.920;12.238;2023-04-03T18:35:10;2.20;99.90
21001;DHT22;10658;50.920;12.238;2023-04-03T18:39:11;2.10;99.90
21001;DHT22;10658;50.920;12.238;2023-04-03T18:43:12;2.10;99.90
21001;DHT22;10658;50.920;12.238;2023-04-03T18:47:13;2.00;99.90
21001;DHT22;10658;50.920;12.238;2023-04-03T18:51:14;2.10;99.90
21001;DHT22;10658;50.920;12.238;2023-04-03T18:55:16;2.10;99.90
21001;DHT22;10658;50.920;12.238;2023-04-03T18:59:19;2.00;99.90
21001;DHT22;10658;50.920;12.238;2023-04-03T19:03:21;2.00;99.90
21001;DHT22;10658;50.920;12.238;2023-04-03T19:07:22;1.90;99.90
21001;DHT22;10658;50.920;12.238;2023-04-03T19:11:22;1.90;99.90
21001;DHT22;10658;50.920;12.238;2023-04-03T19:15:24;1.90;99.90
21001;DHT22;10658;50.920;12.238;2023-04-03T19:19:25;1.90;99.90
21001;DHT22;10658;50.920;12.238;2023-04-03T19:23:26;2.00;99.90
21001;DHT22;10658;50.920;12.238;2023-04-03T19:27:27;1.90;99.90
21001;DHT22;10658;50.920;12.238;2023-04-03T19:31:28;1.90;99.90
21001;DHT22;10658;50.920;12.238;2023-04-03T19:35:28;1.90;99.90
21001;DHT22;10658;50.920;12.238;2023-04-03T19:39:30;1.90;99.90
21001;DHT22;10658;50.920;12.238;2023-04-03T19:43:34;1.70;99.90
21001;DHT22;10658;50.920;12.238;2023-04-03T19:47:35;1.70;99.90
21001;DHT22;10658;50.920;12.238;2023-04-03T19:51:36;1.70;99.90
21001;DHT22;10658;50.920;12.238;2023-04-03T19:55:37;1.80;99.90
21001;DHT22;10658;50.920;12.238;2023-04-03T19:59:38;1.70;99.90
21001;DHT22;10658;50.920;12.238;2023-04-03T20:03:39;1.70;99.90
21001;DHT22;10658;50.920;12.238;2023-04-03T20:07:42;1.70;99.90
21001;DHT22;10658;50.920;12.238;2023-04-03T20:11:43;1.70;99.90
21001;DHT22;10658;50.920;12.238;2023-04-03T20:15:47;1.60;99.90
21001;DHT22;10658;50.920;12.238;2023-04-03T20:19:48;1.60;99.90
21001;DHT22;10658;50.920;12.238;2023-04-03T20:23:50;1.60;99.90
21001;DHT22;10658;50.920;12.238;2023-04-03T20:27:51;1.60;99.90
21001;DHT22;10658;50.920;12.238;2023-04-03T20:31:53;1.60;99.90
21001;DHT22;10658;50.920;12.238;2023-04-03T20:35:56;1.50;99.90
21001;DHT22;10658;50.920;12.238;2023-04-03T20:39:57;1.60;99.90
21001;DHT22;10658;50.920;12.238;2023-04-03T20:43:58;1.50;99.90
21001;DHT22;10658;50.920;12.238;2023-04-03T20:48:00;1.40;99.90
21001;DHT22;10658;50.920;12.238;2023-04-03T20:52:03;1.40;99.90
21001;DHT22;10658;50.920;12.238;2023-04-03T20:56:05;1.30;99.90
21001;DHT22;10658;50.920;12.238;2023-04-03T21:00:09;1.30;99.90
21001;DHT22;10658;50.920;12.238;2023-04-03T21:04:19;1.30;99.90
21001;DHT22;10658;50.920;12.238;2023-04-03T21:22:07;1.50;99.90
21001;DHT22;10658;50.920;12.238;2023-04-03T21:26:08;1.40;99.90
21001;DHT22;10658;50.920;12.238;2023-04-03T21:30:09;1.40;99.90
21001;DHT22;10658;50.920;12.238;2023-04-03T21:34:10;1.40;99.90
21001;DHT22;10658;50.920;12.238;2023-04-03T21:38:13;1.30;99.90
21001;DHT22;10658;50.920;12.238;2023-04-03T21:42:14;1.30;99.90
21001;DHT22;10658;50.920;12.238;2023-04-03T21:46:15;1.40;99.90
21001;DHT22;10658;50.920;12.238;2023-04-03T21:50:16;1.40;99.90
21001;DHT22;10658;50.920;12.238;2023-04-03T21:54:19;1.30;99.90
21001;DHT22;10658;50.920;12.238;2023-04-03T21:58:20;1.20;99.90
21001;DHT22;10658;50.920;12.238;2023-04-03T22:02:21;1.20;99.90
21001;DHT22;10658;50.920;12.238;2023-04-03T22:06:21;1.20;99.90
21001;DHT22;10658;50.920;12.238;2023-04-03T22:10:22;1.20;99.90
21001;DHT22;10658;50.920;12.238;2023-04-03T22:14:23;1.20;99.90
21001;DHT22;10658;50.920;12.238;2023-04-03T22:18:28;1.20;99.90
21001;DHT22;10658;50.920;12.238;2023-04-03T22:22:28;1.30;99.90
21001;DHT22;10658;50.920;12.238;2023-04-03T22:26:29;1.30;99.90
21001;DHT22;10658;50.920;12.238;2023-04-03T22:30:30;1.30;99.90
21001;DHT22;10658;50.920;12.238;2023-04-03T22:34:31;1.20;99.90
21001;DHT22;10658;50.920;12.238;2023-04-03T22:38:33;1.20;99.90
21001;DHT22;10658;50.920;12.238;2023-04-03T22:42:34;1.20;99.90
21001;DHT22;10658;50.920;12.238;2023-04-03T22:46:35;1.20;99.90
21001;DHT22;10658;50.920;12.238;2023-04-03T22:50:36;1.20;99.90
21001;DHT22;10658;50.920;12.238;2023-04-03T22:54:39;1.20;99.90
21001;DHT22;10658;50.920;12.238;2023-04-03T22:58:39;1.40;99.90
21001;DHT22;10658;50.920;12.238;2023-04-03T23:02:40;1.30;99.90
21001;DHT22;10658;50.920;12.238;2023-04-03T23:06:41;1.30;99.90
21001;DHT22;10658;50.920;12.238;2023-04-03T23:10:42;1.30;99.90
21001;DHT22;10658;50.920;12.238;2023-04-03T23:14:43;1.40;99.90
21001;DHT22;10658;50.920;12.238;2023-04-03T23:18:44;1.40;99.90
21001;DHT22;10658;50.920;12.238;2023-04-03T23:22:44;1.40;99.90
21001;DHT22;10658;50.920;12.238;2023-04-03T23:26:45;1.40;99.90
21001;DHT22;10658;50.920;12.238;2023-04-03T23:30:46;1.50;99.90
21001;DHT22;10658;50.920;12.238;2023-04-03T23:34:47;1.50;99.90
21001;DHT22;10658;50.920;12.238;2023-04-03T23:38:48;1.50;99.90
21001;DHT22;10658;50.920;12.238;2023-04-03T23:42:49;1.40;99.90
21001;DHT22;10658;50.920;12.238;2023-04-03T23:46:50;1.40;99.90
21001;DHT22;10658;50.920;12.238;2023-04-03T23:50:51;1.20;99.90
21001;DHT22;10658;50.920;12.238;2023-04-03T23:54:52;1.10;99.90
21001;DHT22;10658;50.920;12.238;2023-04-03T23:58:52;1.30;99.90
